sensor_id;sensor_type;location;lat;lon;timestamp;P1;durP1;ratioP1;P2;durP2;ratioP2
60896;SDS011;46749;32.932;-117.130;2023-08-12T00:00:34;0.85;;;0.82;;
60896;SDS011;46749;32.932;-117.130;2023-08-12T00:03:01;1.17;;;0.98;;
60896;SDS011;46749;32.932;-117.130;2023-08-12T00:05:27;1.38;;;1.20;;
60896;SDS011;46749;32.932;-117.130;2023-08-12T00:07:54;1.10;;;0.98;;
60896;SDS011;46749;32.932;-117.130;2023-08-12T00:10:20;1.23;;;0.95;;
60896;SDS011;46749;32.932;-117.130;2023-08-12T00:12:46;1.10;;;1.00;;
60896;SDS011;46749;32.932;-117.130;2023-08-12T00:15:13;1.17;;;1.08;;
60896;SDS011;46749;32.932;-117.130;2023-08-12T00:17:39;1.80;;;0.98;;
60896;SDS011;46749;32.932;-117.130;2023-08-12T00:20:06;1.27;;;1.00;;
60896;SDS011;46749;32.932;-117.130;2023-08-12T00:22:35;1.33;;;1.23;;
60896;SDS011;46749;32.932;-117.130;2023-08-12T00:25:02;1.20;;;1.08;;
60896;SDS011;46749;32.932;-117.130;2023-08-12T00:27:29;1.10;;;1.00;;
60896;SDS011;46749;32.932;-117.130;2023-08-12T00:29:55;1.05;;;0.90;;
60896;SDS011;46749;32.932;-117.130;2023-08-12T00:32:21;1.15;;;1.00;;
60896;SDS011;46749;32.932;-117.130;2023-08-12T00:34:47;1.23;;;1.13;;
60896;SDS011;46749;32.932;-117.130;2023-08-12T00:37:13;1.30;;;1.20;;
60896;SDS011;46749;32.932;-117.130;2023-08-12T00:39:40;1.27;;;1.08;;
60896;SDS011;46749;32.932;-117.130;2023-08-12T00:42:06;1.10;;;1.00;;
60896;SDS011;46749;32.932;-117.130;2023-08-12T00:44:32;1.40;;;1.15;;
60896;SDS011;46749;32.932;-117.130;2023-08-12T00:46:58;1.15;;;1.02;;
60896;SDS011;46749;32.932;-117.130;2023-08-12T00:49:25;1.80;;;1.30;;
60896;SDS011;46749;32.932;-117.130;2023-08-12T00:51:52;1.30;;;1.00;;
60896;SDS011;46749;32.932;-117.130;2023-08-12T00:54:19;1.45;;;1.15;;
60896;SDS011;46749;32.932;-117.130;2023-08-12T00:56:48;1.20;;;1.00;;
60896;SDS011;46749;32.932;-117.130;2023-08-12T00:59:15;1.58;;;1.17;;
60896;SDS011;46749;32.932;-117.130;2023-08-12T01:01:42;1.20;;;1.10;;
60896;SDS011;46749;32.932;-117.130;2023-08-12T01:04:10;1.20;;;1.10;;
60896;SDS011;46749;32.932;-117.130;2023-08-12T01:06:36;1.13;;;1.02;;
60896;SDS011;46749;32.932;-117.130;2023-08-12T01:09:02;1.17;;;1.08;;
60896;SDS011;46749;32.932;-117.130;2023-08-12T01:17:22;0.98;;;0.90;;
60896;SDS011;46749;32.932;-117.130;2023-08-12T01:19:49;1.10;;;1.00;;
60896;SDS011;46749;32.932;-117.130;2023-08-12T01:22:17;1.27;;;1.17;;
60896;SDS011;46749;32.932;-117.130;2023-08-12T01:24:49;1.10;;;1.00;;
60896;SDS011;46749;32.932;-117.130;2023-08-12T01:27:17;1.77;;;1.10;;
60896;SDS011;46749;32.932;-117.130;2023-08-12T01:29:45;0.80;;;0.80;;
60896;SDS011;46749;32.932;-117.130;2023-08-12T01:37:32;1.25;;;1.00;;
60896;SDS011;46749;32.932;-117.130;2023-08-12T01:40:01;0.70;;;0.70;;
60896;SDS011;46749;32.932;-117.130;2023-08-12T01:42:32;0.98;;;0.90;;
60896;SDS011;46749;32.932;-117.130;2023-08-12T01:44:59;0.93;;;0.80;;
60896;SDS011;46749;32.932;-117.130;2023-08-12T01:47:27;0.90;;;0.90;;
60896;SDS011;46749;32.932;-117.130;2023-08-12T01:49:53;0.80;;;0.80;;
60896;SDS011;46749;32.932;-117.130;2023-08-12T01:52:20;0.88;;;0.88;;
60896;SDS011;46749;32.932;-117.130;2023-08-12T01:54:46;1.50;;;1.02;;
60896;SDS011;46749;32.932;-117.130;2023-08-12T01:57:13;0.90;;;0.90;;
60896;SDS011;46749;32.932;-117.130;2023-08-12T01:59:39;1.10;;;0.98;;
60896;SDS011;46749;32.932;-117.130;2023-08-12T02:02:05;0.75;;;0.75;;
60896;SDS011;46749;32.932;-117.130;2023-08-12T02:04:31;1.27;;;0.90;;
60896;SDS011;46749;32.932;-117.130;2023-08-12T02:06:58;1.10;;;1.00;;
60896;SDS011;46749;32.932;-117.130;2023-08-12T02:09:24;0.88;;;0.80;;
60896;SDS011;46749;32.932;-117.130;2023-08-12T02:11:50;0.90;;;0.90;;
60896;SDS011;46749;32.932;-117.130;2023-08-12T02:14:16;1.00;;;0.90;;
60896;SDS011;46749;32.932;-117.130;2023-08-12T02:16:43;0.85;;;0.85;;
60896;SDS011;46749;32.932;-117.130;2023-08-12T02:19:09;1.10;;;0.80;;
60896;SDS011;46749;32.932;-117.130;2023-08-12T02:21:35;1.20;;;0.90;;
60896;SDS011;46749;32.932;-117.130;2023-08-12T02:24:01;1.05;;;0.82;;
60896;SDS011;46749;32.932;-117.130;2023-08-12T02:26:28;0.73;;;0.70;;
60896;SDS011;46749;32.932;-117.130;2023-08-12T02:28:55;0.73;;;0.73;;
60896;SDS011;46749;32.932;-117.130;2023-08-12T02:31:23;1.15;;;0.90;;
60896;SDS011;46749;32.932;-117.130;2023-08-12T02:33:49;1.13;;;1.02;;
60896;SDS011;46749;32.932;-117.130;2023-08-12T02:36:15;0.70;;;0.70;;
60896;SDS011;46749;32.932;-117.130;2023-08-12T02:38:41;0.75;;;0.75;;
60896;SDS011;46749;32.932;-117.130;2023-08-12T02:41:07;0.88;;;0.82;;
60896;SDS011;46749;32.932;-117.130;2023-08-12T02:43:34;0.90;;;0.90;;
60896;SDS011;46749;32.932;-117.130;2023-08-12T02:46:00;1.05;;;0.90;;
60896;SDS011;46749;32.932;-117.130;2023-08-12T02:48:26;1.05;;;0.90;;
60896;SDS011;46749;32.932;-117.130;2023-08-12T02:50:52;0.80;;;0.80;;
60896;SDS011;46749;32.932;-117.130;2023-08-12T02:53:19;0.80;;;0.70;;
60896;SDS011;46749;32.932;-117.130;2023-08-12T02:55:46;1.25;;;0.90;;
60896;SDS011;46749;32.932;-117.130;2023-08-12T02:58:12;0.80;;;0.70;;
60896;SDS011;46749;32.932;-117.130;2023-08-12T03:00:42;1.02;;;0.80;;
60896;SDS011;46749;32.932;-117.130;2023-08-12T03:03:11;0.90;;;0.90;;
60896;SDS011;46749;32.932;-117.130;2023-08-12T03:05:37;0.70;;;0.70;;
60896;SDS011;46749;32.932;-117.130;2023-08-12T03:08:03;1.83;;;0.90;;
60896;SDS011;46749;32.932;-117.130;2023-08-12T03:10:30;0.90;;;0.75;;
60896;SDS011;46749;32.932;-117.130;2023-08-12T03:12:58;0.75;;;0.70;;
60896;SDS011;46749;32.932;-117.130;2023-08-12T03:15:24;0.80;;;0.75;;
60896;SDS011;46749;32.932;-117.130;2023-08-12T03:17:50;0.80;;;0.70;;
60896;SDS011;46749;32.932;-117.130;2023-08-12T03:20:16;0.70;;;0.70;;
60896;SDS011;46749;32.932;-117.130;2023-08-12T03:22:43;0.80;;;0.80;;
60896;SDS011;46749;32.932;-117.130;2023-08-12T03:25:09;0.90;;;0.70;;
60896;SDS011;46749;32.932;-117.130;2023-08-12T03:27:35;0.70;;;0.70;;
60896;SDS011;46749;32.932;-117.130;2023-08-12T03:30:01;0.73;;;0.73;;
60896;SDS011;46749;32.932;-117.130;2023-08-12T03:32:28;1.02;;;0.80;;
60896;SDS011;46749;32.932;-117.130;2023-08-12T03:34:54;1.40;;;0.80;;
60896;SDS011;46749;32.932;-117.130;2023-08-12T03:37:21;1.05;;;0.75;;
60896;SDS011;46749;32.932;-117.130;2023-08-12T03:39:47;1.00;;;0.80;;
60896;SDS011;46749;32.932;-117.130;2023-08-12T03:42:13;0.70;;;0.70;;
60896;SDS011;46749;32.932;-117.130;2023-08-12T03:44:42;0.90;;;0.70;;
60896;SDS011;46749;32.932;-117.130;2023-08-12T03:47:09;0.65;;;0.60;;
60896;SDS011;46749;32.932;-117.130;2023-08-12T03:49:36;0.68;;;0.68;;
60896;SDS011;46749;32.932;-117.130;2023-08-12T03:52:03;0.65;;;0.65;;
60896;SDS011;46749;32.932;-117.130;2023-08-12T03:54:32;0.88;;;0.60;;
60896;SDS011;46749;32.932;-117.130;2023-08-12T03:56:59;0.77;;;0.70;;
60896;SDS011;46749;32.932;-117.130;2023-08-12T03:59:26;0.85;;;0.80;;
60896;SDS011;46749;32.932;-117.130;2023-08-12T04:01:52;0.70;;;0.70;;
60896;SDS011;46749;32.932;-117.130;2023-08-12T04:04:18;0.63;;;0.63;;
60896;SDS011;46749;32.932;-117.130;2023-08-12T04:06:44;0.60;;;0.60;;
60896;SDS011;46749;32.932;-117.130;2023-08-12T04:09:10;0.80;;;0.80;;
60896;SDS011;46749;32.932;-117.130;2023-08-12T04:11:36;0.63;;;0.60;;
60896;SDS011;46749;32.932;-117.130;2023-08-12T04:14:02;0.70;;;0.70;;
60896;SDS011;46749;32.932;-117.130;2023-08-12T04:16:29;0.70;;;0.70;;
60896;SDS011;46749;32.932;-117.130;2023-08-12T04:18:55;0.57;;;0.57;;
60896;SDS011;46749;32.932;-117.130;2023-08-12T04:21:21;0.55;;;0.55;;
60896;SDS011;46749;32.932;-117.130;2023-08-12T04:23:48;0.98;;;0.70;;
60896;SDS011;46749;32.932;-117.130;2023-08-12T04:26:14;0.60;;;0.60;;
60896;SDS011;46749;32.932;-117.130;2023-08-12T04:28:40;0.60;;;0.60;;
60896;SDS011;46749;32.932;-117.130;2023-08-12T04:31:06;0.85;;;0.70;;
60896;SDS011;46749;32.932;-117.130;2023-08-12T04:33:35;0.52;;;0.50;;
60896;SDS011;46749;32.932;-117.130;2023-08-12T04:36:01;0.70;;;0.63;;
60896;SDS011;46749;32.932;-117.130;2023-08-12T04:38:28;0.60;;;0.60;;
60896;SDS011;46749;32.932;-117.130;2023-08-12T04:40:54;1.20;;;0.88;;
60896;SDS011;46749;32.932;-117.130;2023-08-12T04:43:20;0.60;;;0.60;;
60896;SDS011;46749;32.932;-117.130;2023-08-12T04:45:46;0.70;;;0.70;;
60896;SDS011;46749;32.932;-117.130;2023-08-12T04:48:13;0.70;;;0.70;;
60896;SDS011;46749;32.932;-117.130;2023-08-12T04:50:41;0.60;;;0.60;;
60896;SDS011;46749;32.932;-117.130;2023-08-12T04:53:08;0.63;;;0.50;;
60896;SDS011;46749;32.932;-117.130;2023-08-12T04:55:34;0.80;;;0.80;;
60896;SDS011;46749;32.932;-117.130;2023-08-12T04:58:01;0.70;;;0.70;;
60896;SDS011;46749;32.932;-117.130;2023-08-12T05:00:28;0.52;;;0.52;;
60896;SDS011;46749;32.932;-117.130;2023-08-12T05:02:55;0.70;;;0.70;;
60896;SDS011;46749;32.932;-117.130;2023-08-12T05:05:21;0.50;;;0.50;;
60896;SDS011;46749;32.932;-117.130;2023-08-12T05:07:47;0.60;;;0.40;;
60896;SDS011;46749;32.932;-117.130;2023-08-12T05:10:16;1.02;;;0.80;;
60896;SDS011;46749;32.932;-117.130;2023-08-12T05:12:43;0.60;;;0.60;;
60896;SDS011;46749;32.932;-117.130;2023-08-12T05:15:10;0.70;;;0.60;;
60896;SDS011;46749;32.932;-117.130;2023-08-12T05:17:36;0.70;;;0.70;;
60896;SDS011;46749;32.932;-117.130;2023-08-12T05:20:03;0.63;;;0.60;;
60896;SDS011;46749;32.932;-117.130;2023-08-12T05:22:30;0.70;;;0.70;;
60896;SDS011;46749;32.932;-117.130;2023-08-12T05:24:56;0.70;;;0.68;;
60896;SDS011;46749;32.932;-117.130;2023-08-12T05:27:22;0.60;;;0.60;;
60896;SDS011;46749;32.932;-117.130;2023-08-12T05:29:48;0.50;;;0.50;;
60896;SDS011;46749;32.932;-117.130;2023-08-12T05:32:14;0.47;;;0.47;;
60896;SDS011;46749;32.932;-117.130;2023-08-12T05:34:40;0.65;;;0.65;;
60896;SDS011;46749;32.932;-117.130;2023-08-12T05:37:06;0.50;;;0.50;;
60896;SDS011;46749;32.932;-117.130;2023-08-12T05:39:33;0.68;;;0.57;;
60896;SDS011;46749;32.932;-117.130;2023-08-12T05:41:59;0.55;;;0.50;;
60896;SDS011;46749;32.932;-117.130;2023-08-12T05:44:25;0.60;;;0.60;;
60896;SDS011;46749;32.932;-117.130;2023-08-12T05:46:51;1.75;;;0.50;;
60896;SDS011;46749;32.932;-117.130;2023-08-12T05:49:17;0.60;;;0.60;;
60896;SDS011;46749;32.932;-117.130;2023-08-12T05:51:44;0.70;;;0.60;;
60896;SDS011;46749;32.932;-117.130;2023-08-12T05:54:10;0.50;;;0.50;;
60896;SDS011;46749;32.932;-117.130;2023-08-12T05:56:36;0.40;;;0.40;;
60896;SDS011;46749;32.932;-117.130;2023-08-12T05:59:02;0.50;;;0.50;;
60896;SDS011;46749;32.932;-117.130;2023-08-12T06:01:29;0.73;;;0.60;;
60896;SDS011;46749;32.932;-117.130;2023-08-12T06:03:55;0.50;;;0.50;;
60896;SDS011;46749;32.932;-117.130;2023-08-12T06:06:21;0.50;;;0.50;;
60896;SDS011;46749;32.932;-117.130;2023-08-12T06:08:48;0.40;;;0.40;;
60896;SDS011;46749;32.932;-117.130;2023-08-12T06:11:14;0.52;;;0.52;;
60896;SDS011;46749;32.932;-117.130;2023-08-12T06:13:40;0.60;;;0.60;;
60896;SDS011;46749;32.932;-117.130;2023-08-12T06:16:06;0.50;;;0.50;;
60896;SDS011;46749;32.932;-117.130;2023-08-12T06:18:34;0.40;;;0.40;;
60896;SDS011;46749;32.932;-117.130;2023-08-12T06:21:00;0.50;;;0.50;;
60896;SDS011;46749;32.932;-117.130;2023-08-12T06:23:26;0.60;;;0.60;;
60896;SDS011;46749;32.932;-117.130;2023-08-12T06:25:52;0.95;;;0.60;;
60896;SDS011;46749;32.932;-117.130;2023-08-12T06:28:19;0.95;;;0.70;;
60896;SDS011;46749;32.932;-117.130;2023-08-12T06:30:45;0.73;;;0.63;;
60896;SDS011;46749;32.932;-117.130;2023-08-12T06:33:13;0.50;;;0.50;;
60896;SDS011;46749;32.932;-117.130;2023-08-12T06:35:40;0.60;;;0.60;;
60896;SDS011;46749;32.932;-117.130;2023-08-12T06:38:07;0.70;;;0.50;;
60896;SDS011;46749;32.932;-117.130;2023-08-12T06:40:35;0.65;;;0.65;;
60896;SDS011;46749;32.932;-117.130;2023-08-12T06:43:03;0.98;;;0.68;;
60896;SDS011;46749;32.932;-117.130;2023-08-12T06:45:29;0.60;;;0.55;;
60896;SDS011;46749;32.932;-117.130;2023-08-12T06:47:55;0.60;;;0.60;;
60896;SDS011;46749;32.932;-117.130;2023-08-12T06:50:21;0.70;;;0.70;;
60896;SDS011;46749;32.932;-117.130;2023-08-12T06:52:47;0.60;;;0.60;;
60896;SDS011;46749;32.932;-117.130;2023-08-12T06:55:14;0.70;;;0.65;;
60896;SDS011;46749;32.932;-117.130;2023-08-12T06:57:40;0.50;;;0.50;;
60896;SDS011;46749;32.932;-117.130;2023-08-12T07:00:06;1.15;;;0.70;;
60896;SDS011;46749;32.932;-117.130;2023-08-12T07:02:33;0.60;;;0.60;;
60896;SDS011;46749;32.932;-117.130;2023-08-12T07:05:00;0.80;;;0.70;;
60896;SDS011;46749;32.932;-117.130;2023-08-12T07:07:26;0.52;;;0.52;;
60896;SDS011;46749;32.932;-117.130;2023-08-12T07:09:52;0.70;;;0.70;;
60896;SDS011;46749;32.932;-117.130;2023-08-12T07:12:19;0.45;;;0.45;;
60896;SDS011;46749;32.932;-117.130;2023-08-12T07:14:45;0.77;;;0.60;;
60896;SDS011;46749;32.932;-117.130;2023-08-12T07:17:11;0.80;;;0.70;;
60896;SDS011;46749;32.932;-117.130;2023-08-12T07:19:37;0.60;;;0.60;;
60896;SDS011;46749;32.932;-117.130;2023-08-12T07:22:03;0.65;;;0.55;;
60896;SDS011;46749;32.932;-117.130;2023-08-12T07:24:30;0.50;;;0.47;;
60896;SDS011;46749;32.932;-117.130;2023-08-12T07:26:56;0.70;;;0.60;;
60896;SDS011;46749;32.932;-117.130;2023-08-12T07:29:22;1.23;;;0.65;;
60896;SDS011;46749;32.932;-117.130;2023-08-12T07:31:48;0.70;;;0.70;;
60896;SDS011;46749;32.932;-117.130;2023-08-12T07:34:14;0.55;;;0.55;;
60896;SDS011;46749;32.932;-117.130;2023-08-12T07:36:41;0.45;;;0.43;;
60896;SDS011;46749;32.932;-117.130;2023-08-12T07:39:07;0.60;;;0.60;;
60896;SDS011;46749;32.932;-117.130;2023-08-12T07:41:33;0.80;;;0.75;;
60896;SDS011;46749;32.932;-117.130;2023-08-12T07:43:59;0.82;;;0.60;;
60896;SDS011;46749;32.932;-117.130;2023-08-12T07:46:25;0.93;;;0.60;;
60896;SDS011;46749;32.932;-117.130;2023-08-12T07:48:53;1.05;;;0.60;;
60896;SDS011;46749;32.932;-117.130;2023-08-12T07:51:19;0.60;;;0.60;;
60896;SDS011;46749;32.932;-117.130;2023-08-12T07:53:45;0.60;;;0.60;;
60896;SDS011;46749;32.932;-117.130;2023-08-12T07:56:11;1.08;;;0.55;;
60896;SDS011;46749;32.932;-117.130;2023-08-12T07:58:37;1.08;;;0.70;;
60896;SDS011;46749;32.932;-117.130;2023-08-12T08:01:03;0.60;;;0.60;;
60896;SDS011;46749;32.932;-117.130;2023-08-12T08:03:30;0.82;;;0.73;;
60896;SDS011;46749;32.932;-117.130;2023-08-12T08:05:56;1.13;;;0.63;;
60896;SDS011;46749;32.932;-117.130;2023-08-12T08:08:22;0.88;;;0.60;;
60896;SDS011;46749;32.932;-117.130;2023-08-12T08:10:49;0.50;;;0.50;;
60896;SDS011;46749;32.932;-117.130;2023-08-12T08:13:15;0.60;;;0.60;;
60896;SDS011;46749;32.932;-117.130;2023-08-12T08:15:41;0.80;;;0.52;;
60896;SDS011;46749;32.932;-117.130;2023-08-12T08:18:07;1.27;;;0.60;;
60896;SDS011;46749;32.932;-117.130;2023-08-12T08:20:33;0.82;;;0.80;;
60896;SDS011;46749;32.932;-117.130;2023-08-12T08:23:00;0.70;;;0.70;;
60896;SDS011;46749;32.932;-117.130;2023-08-12T08:25:26;0.80;;;0.73;;
60896;SDS011;46749;32.932;-117.130;2023-08-12T08:27:52;0.70;;;0.40;;
60896;SDS011;46749;32.932;-117.130;2023-08-12T08:30:19;0.95;;;0.63;;
60896;SDS011;46749;32.932;-117.130;2023-08-12T08:32:45;0.85;;;0.70;;
60896;SDS011;46749;32.932;-117.130;2023-08-12T08:35:11;1.15;;;0.70;;
60896;SDS011;46749;32.932;-117.130;2023-08-12T08:37:38;0.63;;;0.50;;
60896;SDS011;46749;32.932;-117.130;2023-08-12T08:40:04;1.10;;;0.60;;
60896;SDS011;46749;32.932;-117.130;2023-08-12T08:42:33;0.70;;;0.60;;
60896;SDS011;46749;32.932;-117.130;2023-08-12T08:45:00;0.73;;;0.50;;
60896;SDS011;46749;32.932;-117.130;2023-08-12T08:47:28;0.57;;;0.50;;
60896;SDS011;46749;32.932;-117.130;2023-08-12T08:49:54;0.70;;;0.70;;
60896;SDS011;46749;32.932;-117.130;2023-08-12T08:52:24;0.60;;;0.57;;
60896;SDS011;46749;32.932;-117.130;2023-08-12T08:54:51;0.85;;;0.63;;
60896;SDS011;46749;32.932;-117.130;2023-08-12T08:57:18;1.75;;;0.55;;
60896;SDS011;46749;32.932;-117.130;2023-08-12T08:59:44;0.73;;;0.60;;
60896;SDS011;46749;32.932;-117.130;2023-08-12T09:02:13;0.50;;;0.50;;
60896;SDS011;46749;32.932;-117.130;2023-08-12T09:04:46;0.60;;;0.60;;
60896;SDS011;46749;32.932;-117.130;2023-08-12T09:07:13;0.60;;;0.60;;
60896;SDS011;46749;32.932;-117.130;2023-08-12T09:09:44;0.40;;;0.40;;
60896;SDS011;46749;32.932;-117.130;2023-08-12T09:12:15;0.68;;;0.50;;
60896;SDS011;46749;32.932;-117.130;2023-08-12T09:14:42;0.85;;;0.60;;
60896;SDS011;46749;32.932;-117.130;2023-08-12T09:17:09;1.27;;;0.60;;
60896;SDS011;46749;32.932;-117.130;2023-08-12T09:19:35;0.50;;;0.50;;
60896;SDS011;46749;32.932;-117.130;2023-08-12T09:22:05;0.40;;;0.40;;
60896;SDS011;46749;32.932;-117.130;2023-08-12T09:24:34;0.50;;;0.50;;
60896;SDS011;46749;32.932;-117.130;2023-08-12T09:27:00;0.45;;;0.40;;
60896;SDS011;46749;32.932;-117.130;2023-08-12T09:29:30;1.00;;;0.60;;
60896;SDS011;46749;32.932;-117.130;2023-08-12T09:32:09;0.80;;;0.60;;
60896;SDS011;46749;32.932;-117.130;2023-08-12T09:34:36;0.45;;;0.45;;
60896;SDS011;46749;32.932;-117.130;2023-08-12T09:37:03;0.50;;;0.50;;
60896;SDS011;46749;32.932;-117.130;2023-08-12T09:39:29;1.25;;;0.60;;
60896;SDS011;46749;32.932;-117.130;2023-08-12T09:41:56;0.70;;;0.50;;
60896;SDS011;46749;32.932;-117.130;2023-08-12T09:44:23;0.65;;;0.50;;
60896;SDS011;46749;32.932;-117.130;2023-08-12T09:46:55;0.57;;;0.57;;
60896;SDS011;46749;32.932;-117.130;2023-08-12T09:49:23;0.40;;;0.40;;
60896;SDS011;46749;32.932;-117.130;2023-08-12T09:51:50;2.03;;;0.50;;
60896;SDS011;46749;32.932;-117.130;2023-08-12T09:54:17;0.68;;;0.60;;
60896;SDS011;46749;32.932;-117.130;2023-08-12T09:56:46;0.90;;;0.50;;
60896;SDS011;46749;32.932;-117.130;2023-08-12T09:59:20;0.98;;;0.68;;
60896;SDS011;46749;32.932;-117.130;2023-08-12T10:01:49;0.75;;;0.60;;
60896;SDS011;46749;32.932;-117.130;2023-08-12T10:04:18;0.65;;;0.50;;
60896;SDS011;46749;32.932;-117.130;2023-08-12T10:06:47;0.60;;;0.60;;
60896;SDS011;46749;32.932;-117.130;2023-08-12T10:09:15;0.60;;;0.60;;
60896;SDS011;46749;32.932;-117.130;2023-08-12T10:11:43;0.60;;;0.57;;
60896;SDS011;46749;32.932;-117.130;2023-08-12T10:14:11;0.70;;;0.63;;
60896;SDS011;46749;32.932;-117.130;2023-08-12T10:16:38;0.40;;;0.40;;
60896;SDS011;46749;32.932;-117.130;2023-08-12T10:19:07;0.50;;;0.50;;
60896;SDS011;46749;32.932;-117.130;2023-08-12T10:21:37;0.43;;;0.43;;
60896;SDS011;46749;32.932;-117.130;2023-08-12T10:24:05;0.63;;;0.50;;
60896;SDS011;46749;32.932;-117.130;2023-08-12T10:26:32;0.70;;;0.50;;
60896;SDS011;46749;32.932;-117.130;2023-08-12T10:28:59;0.60;;;0.60;;
60896;SDS011;46749;32.932;-117.130;2023-08-12T10:31:28;0.70;;;0.70;;
60896;SDS011;46749;32.932;-117.130;2023-08-12T10:33:56;0.50;;;0.50;;
60896;SDS011;46749;32.932;-117.130;2023-08-12T10:36:23;0.43;;;0.43;;
60896;SDS011;46749;32.932;-117.130;2023-08-12T10:38:51;0.77;;;0.77;;
60896;SDS011;46749;32.932;-117.130;2023-08-12T10:41:21;0.80;;;0.57;;
60896;SDS011;46749;32.932;-117.130;2023-08-12T10:43:55;0.60;;;0.50;;
60896;SDS011;46749;32.932;-117.130;2023-08-12T10:46:28;0.50;;;0.50;;
60896;SDS011;46749;32.932;-117.130;2023-08-12T10:49:03;0.60;;;0.60;;
60896;SDS011;46749;32.932;-117.130;2023-08-12T11:02:19;0.60;;;0.60;;
60896;SDS011;46749;32.932;-117.130;2023-08-12T11:04:49;0.60;;;0.50;;
60896;SDS011;46749;32.932;-117.130;2023-08-12T11:07:27;0.57;;;0.50;;
60896;SDS011;46749;32.932;-117.130;2023-08-12T11:09:59;0.88;;;0.57;;
60896;SDS011;46749;32.932;-117.130;2023-08-12T11:12:30;0.68;;;0.60;;
60896;SDS011;46749;32.932;-117.130;2023-08-12T11:14:59;0.65;;;0.50;;
60896;SDS011;46749;32.932;-117.130;2023-08-12T11:17:29;0.47;;;0.47;;
60896;SDS011;46749;32.932;-117.130;2023-08-12T11:20:00;0.40;;;0.40;;
60896;SDS011;46749;32.932;-117.130;2023-08-12T11:22:30;0.40;;;0.40;;
60896;SDS011;46749;32.932;-117.130;2023-08-12T11:24:57;0.60;;;0.60;;
60896;SDS011;46749;32.932;-117.130;2023-08-12T11:27:23;0.45;;;0.40;;
60896;SDS011;46749;32.932;-117.130;2023-08-12T11:29:50;0.52;;;0.50;;
60896;SDS011;46749;32.932;-117.130;2023-08-12T11:32:17;0.60;;;0.60;;
60896;SDS011;46749;32.932;-117.130;2023-08-12T11:34:44;0.50;;;0.50;;
60896;SDS011;46749;32.932;-117.130;2023-08-12T11:37:10;0.50;;;0.50;;
60896;SDS011;46749;32.932;-117.130;2023-08-12T11:39:37;0.40;;;0.40;;
60896;SDS011;46749;32.932;-117.130;2023-08-12T11:42:04;0.40;;;0.40;;
60896;SDS011;46749;32.932;-117.130;2023-08-12T11:44:30;0.50;;;0.50;;
60896;SDS011;46749;32.932;-117.130;2023-08-12T11:46:56;0.60;;;0.60;;
60896;SDS011;46749;32.932;-117.130;2023-08-12T11:49:23;0.52;;;0.52;;
60896;SDS011;46749;32.932;-117.130;2023-08-12T11:51:49;0.50;;;0.50;;
60896;SDS011;46749;32.932;-117.130;2023-08-12T11:54:16;0.57;;;0.50;;
60896;SDS011;46749;32.932;-117.130;2023-08-12T11:56:42;0.50;;;0.50;;
60896;SDS011;46749;32.932;-117.130;2023-08-12T11:59:09;0.65;;;0.50;;
60896;SDS011;46749;32.932;-117.130;2023-08-12T12:01:36;0.43;;;0.40;;
60896;SDS011;46749;32.932;-117.130;2023-08-12T12:04:02;0.50;;;0.40;;
60896;SDS011;46749;32.932;-117.130;2023-08-12T12:06:33;0.50;;;0.40;;
60896;SDS011;46749;32.932;-117.130;2023-08-12T12:09:06;0.30;;;0.30;;
60896;SDS011;46749;32.932;-117.130;2023-08-12T12:11:38;0.40;;;0.40;;
60896;SDS011;46749;32.932;-117.130;2023-08-12T12:14:05;0.50;;;0.50;;
60896;SDS011;46749;32.932;-117.130;2023-08-12T12:16:42;0.50;;;0.50;;
60896;SDS011;46749;32.932;-117.130;2023-08-12T12:19:12;0.40;;;0.40;;
60896;SDS011;46749;32.932;-117.130;2023-08-12T12:21:46;0.40;;;0.40;;
60896;SDS011;46749;32.932;-117.130;2023-08-12T12:24:16;0.40;;;0.40;;
60896;SDS011;46749;32.932;-117.130;2023-08-12T12:26:43;0.50;;;0.40;;
60896;SDS011;46749;32.932;-117.130;2023-08-12T12:29:10;0.60;;;0.55;;
60896;SDS011;46749;32.932;-117.130;2023-08-12T12:31:37;0.45;;;0.45;;
60896;SDS011;46749;32.932;-117.130;2023-08-12T12:34:04;0.45;;;0.45;;
60896;SDS011;46749;32.932;-117.130;2023-08-12T12:36:32;0.43;;;0.40;;
60896;SDS011;46749;32.932;-117.130;2023-08-12T12:39:02;0.40;;;0.40;;
60896;SDS011;46749;32.932;-117.130;2023-08-12T12:41:29;1.73;;;0.47;;
60896;SDS011;46749;32.932;-117.130;2023-08-12T12:43:55;0.50;;;0.50;;
60896;SDS011;46749;32.932;-117.130;2023-08-12T12:46:21;0.88;;;0.50;;
60896;SDS011;46749;32.932;-117.130;2023-08-12T12:48:48;0.55;;;0.50;;
60896;SDS011;46749;32.932;-117.130;2023-08-12T12:51:14;0.40;;;0.40;;
60896;SDS011;46749;32.932;-117.130;2023-08-12T12:53:40;0.50;;;0.50;;
60896;SDS011;46749;32.932;-117.130;2023-08-12T12:56:07;0.52;;;0.40;;
60896;SDS011;46749;32.932;-117.130;2023-08-12T12:58:34;0.50;;;0.50;;
60896;SDS011;46749;32.932;-117.130;2023-08-12T13:01:01;0.38;;;0.38;;
60896;SDS011;46749;32.932;-117.130;2023-08-12T13:03:29;0.52;;;0.52;;
60896;SDS011;46749;32.932;-117.130;2023-08-12T13:05:56;0.57;;;0.50;;
60896;SDS011;46749;32.932;-117.130;2023-08-12T13:08:22;0.70;;;0.60;;
60896;SDS011;46749;32.932;-117.130;2023-08-12T13:10:49;0.52;;;0.50;;
60896;SDS011;46749;32.932;-117.130;2023-08-12T13:13:17;0.70;;;0.50;;
60896;SDS011;46749;32.932;-117.130;2023-08-12T13:15:44;0.57;;;0.57;;
60896;SDS011;46749;32.932;-117.130;2023-08-12T13:18:11;0.50;;;0.50;;
60896;SDS011;46749;32.932;-117.130;2023-08-12T13:20:37;0.70;;;0.40;;
60896;SDS011;46749;32.932;-117.130;2023-08-12T13:23:04;0.40;;;0.40;;
60896;SDS011;46749;32.932;-117.130;2023-08-12T13:25:31;0.40;;;0.40;;
60896;SDS011;46749;32.932;-117.130;2023-08-12T13:28:01;0.50;;;0.50;;
60896;SDS011;46749;32.932;-117.130;2023-08-12T13:30:28;0.50;;;0.50;;
60896;SDS011;46749;32.932;-117.130;2023-08-12T13:32:55;0.40;;;0.40;;
60896;SDS011;46749;32.932;-117.130;2023-08-12T13:35:22;0.50;;;0.50;;
60896;SDS011;46749;32.932;-117.130;2023-08-12T13:37:51;0.43;;;0.43;;
60896;SDS011;46749;32.932;-117.130;2023-08-12T13:40:17;0.60;;;0.40;;
60896;SDS011;46749;32.932;-117.130;2023-08-12T13:42:43;0.40;;;0.40;;
60896;SDS011;46749;32.932;-117.130;2023-08-12T13:45:11;0.50;;;0.50;;
60896;SDS011;46749;32.932;-117.130;2023-08-12T13:47:38;0.60;;;0.60;;
60896;SDS011;46749;32.932;-117.130;2023-08-12T13:50:05;0.50;;;0.50;;
60896;SDS011;46749;32.932;-117.130;2023-08-12T13:52:32;0.55;;;0.40;;
60896;SDS011;46749;32.932;-117.130;2023-08-12T13:54:58;0.40;;;0.40;;
60896;SDS011;46749;32.932;-117.130;2023-08-12T13:57:24;0.40;;;0.40;;
60896;SDS011;46749;32.932;-117.130;2023-08-12T13:59:51;0.50;;;0.50;;
60896;SDS011;46749;32.932;-117.130;2023-08-12T14:02:17;0.60;;;0.57;;
60896;SDS011;46749;32.932;-117.130;2023-08-12T14:04:43;0.50;;;0.50;;
60896;SDS011;46749;32.932;-117.130;2023-08-12T14:07:09;0.57;;;0.43;;
60896;SDS011;46749;32.932;-117.130;2023-08-12T14:09:35;0.55;;;0.50;;
60896;SDS011;46749;32.932;-117.130;2023-08-12T14:12:02;0.40;;;0.40;;
60896;SDS011;46749;32.932;-117.130;2023-08-12T14:14:28;0.50;;;0.50;;
60896;SDS011;46749;32.932;-117.130;2023-08-12T14:16:55;0.68;;;0.55;;
60896;SDS011;46749;32.932;-117.130;2023-08-12T14:19:22;0.80;;;0.60;;
60896;SDS011;46749;32.932;-117.130;2023-08-12T14:21:48;1.23;;;0.50;;
60896;SDS011;46749;32.932;-117.130;2023-08-12T14:24:14;0.88;;;0.50;;
60896;SDS011;46749;32.932;-117.130;2023-08-12T14:26:40;0.50;;;0.50;;
60896;SDS011;46749;32.932;-117.130;2023-08-12T14:29:06;0.50;;;0.50;;